sensor_id;sensor_type;location;lat;lon;timestamp;P1;durP1;ratioP1;P2;durP2;ratioP2
22268;SDS011;11303;50.772;19.670;2022-11-14T00:01:15;200.98;;;49.13;;
22268;SDS011;11303;50.772;19.670;2022-11-14T00:03:16;176.93;;;44.25;;
22268;SDS011;11303;50.772;19.670;2022-11-14T00:05:18;182.60;;;46.38;;
22268;SDS011;11303;50.772;19.670;2022-11-14T00:07:20;187.35;;;49.03;;
22268;SDS011;11303;50.772;19.670;2022-11-14T00:09:25;189.10;;;48.10;;
22268;SDS011;11303;50.772;19.670;2022-11-14T00:11:27;179.48;;;46.97;;
22268;SDS011;11303;50.772;19.670;2022-11-14T00:13:28;192.18;;;48.92;;
22268;SDS011;11303;50.772;19.670;2022-11-14T00:15:30;165.05;;;42.92;;
22268;SDS011;11303;50.772;19.670;2022-11-14T00:17:31;158.85;;;41.33;;
22268;SDS011;11303;50.772;19.670;2022-11-14T00:19:33;135.88;;;34.63;;
22268;SDS011;11303;50.772;19.670;2022-11-14T00:21:34;168.48;;;41.78;;
22268;SDS011;11303;50.772;19.670;2022-11-14T00:23:36;169.15;;;43.20;;
22268;SDS011;11303;50.772;19.670;2022-11-14T00:25:37;169.50;;;42.53;;
22268;SDS011;11303;50.772;19.670;2022-11-14T00:27:39;190.68;;;47.28;;
22268;SDS011;11303;50.772;19.670;2022-11-14T00:29:40;182.52;;;49.45;;
22268;SDS011;11303;50.772;19.670;2022-11-14T00:31:42;179.82;;;45.58;;
22268;SDS011;11303;50.772;19.670;2022-11-14T00:33:43;187.43;;;44.08;;
22268;SDS011;11303;50.772;19.670;2022-11-14T00:35:52;183.65;;;45.45;;
22268;SDS011;11303;50.772;19.670;2022-11-14T00:37:54;200.15;;;48.45;;
22268;SDS011;11303;50.772;19.670;2022-11-14T00:39:56;181.73;;;45.13;;
22268;SDS011;11303;50.772;19.670;2022-11-14T00:41:57;199.05;;;49.35;;
22268;SDS011;11303;50.772;19.670;2022-11-14T00:43:59;177.50;;;44.38;;
22268;SDS011;11303;50.772;19.670;2022-11-14T00:46:01;197.90;;;51.65;;
22268;SDS011;11303;50.772;19.670;2022-11-14T00:48:02;193.68;;;49.97;;
22268;SDS011;11303;50.772;19.670;2022-11-14T00:50:04;181.40;;;49.40;;
22268;SDS011;11303;50.772;19.670;2022-11-14T00:52:06;174.85;;;48.03;;
22268;SDS011;11303;50.772;19.670;2022-11-14T00:54:08;184.55;;;49.67;;
22268;SDS011;11303;50.772;19.670;2022-11-14T00:56:10;188.88;;;49.25;;
22268;SDS011;11303;50.772;19.670;2022-11-14T00:58:11;168.43;;;48.75;;
22268;SDS011;11303;50.772;19.670;2022-11-14T01:00:13;168.07;;;46.05;;
22268;SDS011;11303;50.772;19.670;2022-11-14T01:02:14;158.88;;;45.50;;
22268;SDS011;11303;50.772;19.670;2022-11-14T01:04:16;163.77;;;45.83;;
22268;SDS011;11303;50.772;19.670;2022-11-14T01:06:18;148.10;;;46.40;;
22268;SDS011;11303;50.772;19.670;2022-11-14T01:08:20;159.95;;;46.92;;
22268;SDS011;11303;50.772;19.670;2022-11-14T01:10:21;152.48;;;43.05;;
22268;SDS011;11303;50.772;19.670;2022-11-14T01:12:23;136.02;;;40.10;;
22268;SDS011;11303;50.772;19.670;2022-11-14T01:14:25;160.13;;;44.85;;
22268;SDS011;11303;50.772;19.670;2022-11-14T01:16:26;150.90;;;44.45;;
22268;SDS011;11303;50.772;19.670;2022-11-14T01:18:28;156.55;;;45.13;;
22268;SDS011;11303;50.772;19.670;2022-11-14T01:20:30;157.00;;;45.33;;
22268;SDS011;11303;50.772;19.670;2022-11-14T01:22:32;160.38;;;48.40;;
22268;SDS011;11303;50.772;19.670;2022-11-14T01:24:33;173.45;;;49.72;;
22268;SDS011;11303;50.772;19.670;2022-11-14T01:26:35;152.55;;;47.38;;
22268;SDS011;11303;50.772;19.670;2022-11-14T01:28:37;156.38;;;46.33;;
22268;SDS011;11303;50.772;19.670;2022-11-14T01:30:40;162.25;;;46.78;;
22268;SDS011;11303;50.772;19.670;2022-11-14T01:32:41;165.80;;;46.75;;
22268;SDS011;11303;50.772;19.670;2022-11-14T01:34:43;162.82;;;48.40;;
22268;SDS011;11303;50.772;19.670;2022-11-14T01:36:46;147.20;;;47.42;;
22268;SDS011;11303;50.772;19.670;2022-11-14T01:38:51;150.93;;;48.05;;
22268;SDS011;11303;50.772;19.670;2022-11-14T01:40:53;161.30;;;48.80;;
22268;SDS011;11303;50.772;19.670;2022-11-14T01:47:58;170.63;;;48.35;;
22268;SDS011;11303;50.772;19.670;2022-11-14T01:50:00;159.95;;;50.00;;
22268;SDS011;11303;50.772;19.670;2022-11-14T01:52:09;152.82;;;47.20;;
22268;SDS011;11303;50.772;19.670;2022-11-14T01:54:21;159.70;;;48.67;;
22268;SDS011;11303;50.772;19.670;2022-11-14T01:56:27;160.32;;;48.50;;
22268;SDS011;11303;50.772;19.670;2022-11-14T01:58:57;139.02;;;42.72;;
22268;SDS011;11303;50.772;19.670;2022-11-14T02:01:03;135.30;;;44.33;;
22268;SDS011;11303;50.772;19.670;2022-11-14T02:03:05;154.70;;;47.20;;
22268;SDS011;11303;50.772;19.670;2022-11-14T02:05:08;138.77;;;42.63;;
22268;SDS011;11303;50.772;19.670;2022-11-14T02:07:11;139.85;;;42.97;;
22268;SDS011;11303;50.772;19.670;2022-11-14T02:09:15;133.52;;;44.53;;
22268;SDS011;11303;50.772;19.670;2022-11-14T02:11:16;125.93;;;43.20;;
22268;SDS011;11303;50.772;19.670;2022-11-14T02:13:18;82.53;;;28.40;;
22268;SDS011;11303;50.772;19.670;2022-11-14T02:15:19;141.27;;;45.55;;
22268;SDS011;11303;50.772;19.670;2022-11-14T02:17:22;133.60;;;45.65;;
22268;SDS011;11303;50.772;19.670;2022-11-14T02:19:44;125.18;;;42.97;;
22268;SDS011;11303;50.772;19.670;2022-11-14T02:21:48;112.20;;;37.03;;
22268;SDS011;11303;50.772;19.670;2022-11-14T02:23:50;137.68;;;46.08;;
22268;SDS011;11303;50.772;19.670;2022-11-14T02:25:51;131.98;;;44.72;;
22268;SDS011;11303;50.772;19.670;2022-11-14T02:27:53;133.60;;;45.10;;
22268;SDS011;11303;50.772;19.670;2022-11-14T02:30:06;130.10;;;43.22;;
22268;SDS011;11303;50.772;19.670;2022-11-14T02:32:11;134.23;;;44.17;;
22268;SDS011;11303;50.772;19.670;2022-11-14T02:34:12;128.10;;;45.72;;
22268;SDS011;11303;50.772;19.670;2022-11-14T02:36:17;123.22;;;40.42;;
22268;SDS011;11303;50.772;19.670;2022-11-14T02:38:18;125.82;;;43.83;;
22268;SDS011;11303;50.772;19.670;2022-11-14T02:40:19;132.63;;;46.22;;
22268;SDS011;11303;50.772;19.670;2022-11-14T02:42:21;124.22;;;42.40;;
22268;SDS011;11303;50.772;19.670;2022-11-14T02:44:23;118.03;;;42.30;;
22268;SDS011;11303;50.772;19.670;2022-11-14T02:46:24;123.57;;;42.97;;
22268;SDS011;11303;50.772;19.670;2022-11-14T02:48:26;138.20;;;49.25;;
22268;SDS011;11303;50.772;19.670;2022-11-14T02:50:28;137.25;;;47.33;;
22268;SDS011;11303;50.772;19.670;2022-11-14T02:52:30;147.77;;;53.22;;
22268;SDS011;11303;50.772;19.670;2022-11-14T02:54:31;135.57;;;48.95;;
22268;SDS011;11303;50.772;19.670;2022-11-14T02:56:33;139.27;;;46.13;;
22268;SDS011;11303;50.772;19.670;2022-11-14T02:58:34;120.95;;;41.83;;
22268;SDS011;11303;50.772;19.670;2022-11-14T03:00:36;122.45;;;38.70;;
22268;SDS011;11303;50.772;19.670;2022-11-14T03:02:57;130.80;;;45.60;;
22268;SDS011;11303;50.772;19.670;2022-11-14T03:04:59;132.43;;;44.97;;
22268;SDS011;11303;50.772;19.670;2022-11-14T03:07:00;131.07;;;46.35;;
22268;SDS011;11303;50.772;19.670;2022-11-14T03:09:02;147.73;;;47.47;;
22268;SDS011;11303;50.772;19.670;2022-11-14T03:11:04;140.10;;;48.22;;
22268;SDS011;11303;50.772;19.670;2022-11-14T03:13:07;146.93;;;50.08;;
22268;SDS011;11303;50.772;19.670;2022-11-14T03:15:09;143.30;;;49.40;;
22268;SDS011;11303;50.772;19.670;2022-11-14T03:17:11;136.25;;;46.40;;
22268;SDS011;11303;50.772;19.670;2022-11-14T03:19:12;131.20;;;47.50;;
22268;SDS011;11303;50.772;19.670;2022-11-14T03:21:17;142.80;;;48.35;;
22268;SDS011;11303;50.772;19.670;2022-11-14T03:23:20;124.63;;;44.25;;
22268;SDS011;11303;50.772;19.670;2022-11-14T03:25:21;139.13;;;48.03;;
22268;SDS011;11303;50.772;19.670;2022-11-14T03:27:23;144.40;;;52.42;;
22268;SDS011;11303;50.772;19.670;2022-11-14T03:29:24;134.90;;;50.40;;
22268;SDS011;11303;50.772;19.670;2022-11-14T03:31:26;135.00;;;47.67;;
22268;SDS011;11303;50.772;19.670;2022-11-14T03:33:27;127.43;;;46.90;;
22268;SDS011;11303;50.772;19.670;2022-11-14T03:35:29;140.15;;;48.42;;
22268;SDS011;11303;50.772;19.670;2022-11-14T03:37:30;122.72;;;40.30;;
22268;SDS011;11303;50.772;19.670;2022-11-14T03:39:32;87.93;;;33.47;;
22268;SDS011;11303;50.772;19.670;2022-11-14T03:41:33;124.50;;;44.08;;
22268;SDS011;11303;50.772;19.670;2022-11-14T03:43:35;113.68;;;40.88;;
22268;SDS011;11303;50.772;19.670;2022-11-14T03:45:36;124.45;;;44.60;;
22268;SDS011;11303;50.772;19.670;2022-11-14T03:47:38;129.35;;;45.47;;
22268;SDS011;11303;50.772;19.670;2022-11-14T03:49:40;111.18;;;37.65;;
22268;SDS011;11303;50.772;19.670;2022-11-14T03:51:41;125.18;;;45.20;;
22268;SDS011;11303;50.772;19.670;2022-11-14T03:53:43;131.30;;;44.28;;
22268;SDS011;11303;50.772;19.670;2022-11-14T03:55:44;125.00;;;43.80;;
22268;SDS011;11303;50.772;19.670;2022-11-14T03:57:46;125.88;;;42.80;;
22268;SDS011;11303;50.772;19.670;2022-11-14T03:59:47;129.70;;;44.75;;
22268;SDS011;11303;50.772;19.670;2022-11-14T04:01:49;131.35;;;45.83;;
22268;SDS011;11303;50.772;19.670;2022-11-14T04:03:50;138.95;;;47.97;;
22268;SDS011;11303;50.772;19.670;2022-11-14T04:05:52;132.30;;;45.95;;
22268;SDS011;11303;50.772;19.670;2022-11-14T04:07:53;133.63;;;47.20;;
22268;SDS011;11303;50.772;19.670;2022-11-14T04:09:55;134.70;;;45.10;;
22268;SDS011;11303;50.772;19.670;2022-11-14T04:11:56;137.32;;;46.60;;
22268;SDS011;11303;50.772;19.670;2022-11-14T04:13:58;130.40;;;47.70;;
22268;SDS011;11303;50.772;19.670;2022-11-14T04:15:59;130.88;;;46.75;;
22268;SDS011;11303;50.772;19.670;2022-11-14T04:18:01;124.40;;;45.65;;
22268;SDS011;11303;50.772;19.670;2022-11-14T04:20:02;134.00;;;46.28;;
22268;SDS011;11303;50.772;19.670;2022-11-14T04:22:04;141.38;;;49.25;;
22268;SDS011;11303;50.772;19.670;2022-11-14T04:24:06;128.43;;;44.60;;
22268;SDS011;11303;50.772;19.670;2022-11-14T04:26:11;128.07;;;45.08;;
22268;SDS011;11303;50.772;19.670;2022-11-14T04:28:13;96.15;;;35.47;;
22268;SDS011;11303;50.772;19.670;2022-11-14T04:30:14;122.70;;;43.35;;
22268;SDS011;11303;50.772;19.670;2022-11-14T04:32:16;114.78;;;40.60;;
22268;SDS011;11303;50.772;19.670;2022-11-14T04:34:17;128.30;;;42.03;;
22268;SDS011;11303;50.772;19.670;2022-11-14T04:36:19;127.47;;;42.65;;
22268;SDS011;11303;50.772;19.670;2022-11-14T04:38:20;129.65;;;44.63;;
22268;SDS011;11303;50.772;19.670;2022-11-14T04:40:22;121.22;;;39.90;;
22268;SDS011;11303;50.772;19.670;2022-11-14T04:42:23;120.50;;;41.50;;
22268;SDS011;11303;50.772;19.670;2022-11-14T04:44:26;135.02;;;42.90;;
22268;SDS011;11303;50.772;19.670;2022-11-14T04:46:27;132.88;;;41.63;;
22268;SDS011;11303;50.772;19.670;2022-11-14T04:48:29;134.45;;;44.55;;
22268;SDS011;11303;50.772;19.670;2022-11-14T04:50:30;133.18;;;45.10;;
22268;SDS011;11303;50.772;19.670;2022-11-14T04:52:32;139.98;;;45.15;;
22268;SDS011;11303;50.772;19.670;2022-11-14T04:54:33;130.60;;;43.40;;
22268;SDS011;11303;50.772;19.670;2022-11-14T04:56:35;142.65;;;44.35;;
22268;SDS011;11303;50.772;19.670;2022-11-14T04:58:37;128.38;;;37.55;;
22268;SDS011;11303;50.772;19.670;2022-11-14T05:00:38;131.35;;;44.05;;
22268;SDS011;11303;50.772;19.670;2022-11-14T05:02:40;151.30;;;45.13;;
22268;SDS011;11303;50.772;19.670;2022-11-14T05:04:41;148.25;;;42.83;;
22268;SDS011;11303;50.772;19.670;2022-11-14T05:06:44;147.32;;;45.47;;
22268;SDS011;11303;50.772;19.670;2022-11-14T05:08:46;144.55;;;40.83;;
22268;SDS011;11303;50.772;19.670;2022-11-14T05:10:48;141.73;;;40.25;;
22268;SDS011;11303;50.772;19.670;2022-11-14T05:12:53;123.60;;;33.83;;
22268;SDS011;11303;50.772;19.670;2022-11-14T05:14:55;141.95;;;39.47;;
22268;SDS011;11303;50.772;19.670;2022-11-14T05:16:57;160.98;;;44.00;;
22268;SDS011;11303;50.772;19.670;2022-11-14T05:18:59;155.77;;;41.13;;
22268;SDS011;11303;50.772;19.670;2022-11-14T05:21:00;153.18;;;42.95;;
22268;SDS011;11303;50.772;19.670;2022-11-14T05:23:01;158.85;;;44.22;;
22268;SDS011;11303;50.772;19.670;2022-11-14T05:25:04;163.48;;;45.25;;
22268;SDS011;11303;50.772;19.670;2022-11-14T05:27:06;152.88;;;43.38;;
22268;SDS011;11303;50.772;19.670;2022-11-14T05:29:07;157.75;;;41.63;;
22268;SDS011;11303;50.772;19.670;2022-11-14T05:31:10;152.93;;;41.80;;
22268;SDS011;11303;50.772;19.670;2022-11-14T05:33:18;170.63;;;41.90;;
22268;SDS011;11303;50.772;19.670;2022-11-14T05:35:19;177.30;;;44.90;;
22268;SDS011;11303;50.772;19.670;2022-11-14T05:37:21;167.50;;;39.63;;
22268;SDS011;11303;50.772;19.670;2022-11-14T05:39:22;173.40;;;42.08;;
22268;SDS011;11303;50.772;19.670;2022-11-14T05:41:24;146.82;;;39.03;;
22268;SDS011;11303;50.772;19.670;2022-11-14T05:43:28;178.73;;;42.53;;
22268;SDS011;11303;50.772;19.670;2022-11-14T05:45:29;183.80;;;44.30;;
22268;SDS011;11303;50.772;19.670;2022-11-14T05:47:31;194.82;;;47.50;;
22268;SDS011;11303;50.772;19.670;2022-11-14T05:49:32;187.38;;;45.10;;
22268;SDS011;11303;50.772;19.670;2022-11-14T05:51:34;190.63;;;43.67;;
22268;SDS011;11303;50.772;19.670;2022-11-14T05:53:35;144.60;;;34.80;;
22268;SDS011;11303;50.772;19.670;2022-11-14T05:55:37;193.85;;;43.83;;
22268;SDS011;11303;50.772;19.670;2022-11-14T05:57:38;164.55;;;40.45;;
22268;SDS011;11303;50.772;19.670;2022-11-14T05:59:40;170.77;;;40.20;;
22268;SDS011;11303;50.772;19.670;2022-11-14T06:01:41;180.80;;;40.33;;
22268;SDS011;11303;50.772;19.670;2022-11-14T06:03:44;157.35;;;36.83;;
22268;SDS011;11303;50.772;19.670;2022-11-14T06:05:47;171.90;;;39.22;;
22268;SDS011;11303;50.772;19.670;2022-11-14T06:07:53;188.25;;;43.28;;
22268;SDS011;11303;50.772;19.670;2022-11-14T06:09:58;176.50;;;44.25;;
22268;SDS011;11303;50.772;19.670;2022-11-14T06:12:00;155.55;;;37.05;;
22268;SDS011;11303;50.772;19.670;2022-11-14T06:14:06;219.18;;;59.17;;
22268;SDS011;11303;50.772;19.670;2022-11-14T06:16:12;169.20;;;41.90;;
22268;SDS011;11303;50.772;19.670;2022-11-14T06:18:16;208.65;;;45.47;;
22268;SDS011;11303;50.772;19.670;2022-11-14T06:20:17;201.10;;;43.10;;
22268;SDS011;11303;50.772;19.670;2022-11-14T06:22:19;213.60;;;49.85;;
22268;SDS011;11303;50.772;19.670;2022-11-14T06:24:20;238.38;;;56.47;;
22268;SDS011;11303;50.772;19.670;2022-11-14T06:26:26;226.88;;;51.58;;
22268;SDS011;11303;50.772;19.670;2022-11-14T06:28:32;206.50;;;45.00;;
22268;SDS011;11303;50.772;19.670;2022-11-14T06:30:34;204.82;;;47.55;;
22268;SDS011;11303;50.772;19.670;2022-11-14T06:32:36;216.10;;;48.78;;
22268;SDS011;11303;50.772;19.670;2022-11-14T06:34:37;240.80;;;44.58;;
22268;SDS011;11303;50.772;19.670;2022-11-14T06:36:39;250.43;;;48.15;;
22268;SDS011;11303;50.772;19.670;2022-11-14T06:38:41;215.32;;;43.92;;
22268;SDS011;11303;50.772;19.670;2022-11-14T06:40:43;228.13;;;42.80;;
22268;SDS011;11303;50.772;19.670;2022-11-14T06:42:44;213.63;;;42.15;;
22268;SDS011;11303;50.772;19.670;2022-11-14T06:44:46;210.98;;;42.55;;
22268;SDS011;11303;50.772;19.670;2022-11-14T06:46:47;222.90;;;43.92;;
22268;SDS011;11303;50.772;19.670;2022-11-14T06:48:49;221.25;;;47.47;;
22268;SDS011;11303;50.772;19.670;2022-11-14T06:50:53;215.68;;;46.55;;
22268;SDS011;11303;50.772;19.670;2022-11-14T06:52:56;195.68;;;40.78;;
22268;SDS011;11303;50.772;19.670;2022-11-14T06:54:58;219.57;;;45.58;;
22268;SDS011;11303;50.772;19.670;2022-11-14T06:57:00;188.02;;;42.28;;
22268;SDS011;11303;50.772;19.670;2022-11-14T06:59:01;199.10;;;39.45;;
22268;SDS011;11303;50.772;19.670;2022-11-14T07:01:06;216.43;;;44.42;;
22268;SDS011;11303;50.772;19.670;2022-11-14T07:03:10;239.10;;;48.28;;
22268;SDS011;11303;50.772;19.670;2022-11-14T07:05:12;231.32;;;46.17;;
22268;SDS011;11303;50.772;19.670;2022-11-14T07:07:14;221.55;;;41.03;;
22268;SDS011;11303;50.772;19.670;2022-11-14T07:09:15;187.52;;;37.58;;
22268;SDS011;11303;50.772;19.670;2022-11-14T07:11:18;183.32;;;34.28;;
22268;SDS011;11303;50.772;19.670;2022-11-14T07:13:24;218.50;;;44.00;;
22268;SDS011;11303;50.772;19.670;2022-11-14T07:15:25;232.95;;;45.67;;
22268;SDS011;11303;50.772;19.670;2022-11-14T07:17:27;245.93;;;47.92;;
22268;SDS011;11303;50.772;19.670;2022-11-14T07:19:31;186.68;;;40.33;;
22268;SDS011;11303;50.772;19.670;2022-11-14T07:21:33;229.27;;;42.38;;
22268;SDS011;11303;50.772;19.670;2022-11-14T07:23:35;192.48;;;38.05;;
22268;SDS011;11303;50.772;19.670;2022-11-14T07:25:37;225.38;;;45.58;;
22268;SDS011;11303;50.772;19.670;2022-11-14T07:27:39;251.63;;;50.90;;
22268;SDS011;11303;50.772;19.670;2022-11-14T07:29:40;219.85;;;45.33;;
22268;SDS011;11303;50.772;19.670;2022-11-14T07:31:42;198.18;;;39.90;;
22268;SDS011;11303;50.772;19.670;2022-11-14T07:33:43;212.18;;;41.20;;
22268;SDS011;11303;50.772;19.670;2022-11-14T07:35:45;235.45;;;44.88;;
22268;SDS011;11303;50.772;19.670;2022-11-14T07:37:47;228.00;;;44.38;;
22268;SDS011;11303;50.772;19.670;2022-11-14T07:39:49;242.82;;;43.78;;
22268;SDS011;11303;50.772;19.670;2022-11-14T07:41:50;252.77;;;49.20;;
22268;SDS011;11303;50.772;19.670;2022-11-14T07:43:52;214.45;;;44.65;;
22268;SDS011;11303;50.772;19.670;2022-11-14T07:45:57;206.02;;;42.10;;
22268;SDS011;11303;50.772;19.670;2022-11-14T07:48:01;196.43;;;41.70;;
22268;SDS011;11303;50.772;19.670;2022-11-14T07:50:02;169.55;;;36.45;;
22268;SDS011;11303;50.772;19.670;2022-11-14T07:52:04;176.27;;;40.75;;
22268;SDS011;11303;50.772;19.670;2022-11-14T07:54:06;172.10;;;39.35;;
22268;SDS011;11303;50.772;19.670;2022-11-14T07:56:10;191.10;;;39.00;;
22268;SDS011;11303;50.772;19.670;2022-11-14T07:58:13;173.70;;;38.08;;
22268;SDS011;11303;50.772;19.670;2022-11-14T08:00:14;181.80;;;39.00;;
22268;SDS011;11303;50.772;19.670;2022-11-14T08:02:17;213.52;;;43.28;;
22268;SDS011;11303;50.772;19.670;2022-11-14T08:04:18;205.93;;;43.55;;
22268;SDS011;11303;50.772;19.670;2022-11-14T08:06:20;162.20;;;39.67;;
22268;SDS011;11303;50.772;19.670;2022-11-14T08:08:21;157.63;;;40.15;;
22268;SDS011;11303;50.772;19.670;2022-11-14T08:10:23;139.07;;;36.33;;
22268;SDS011;11303;50.772;19.670;2022-11-14T08:12:28;115.55;;;28.75;;
22268;SDS011;11303;50.772;19.670;2022-11-14T08:14:30;124.47;;;33.03;;
22268;SDS011;11303;50.772;19.670;2022-11-14T08:16:31;131.68;;;33.22;;
22268;SDS011;11303;50.772;19.670;2022-11-14T08:18:33;95.80;;;26.25;;
22268;SDS011;11303;50.772;19.670;2022-11-14T08:20:35;157.95;;;59.17;;
22268;SDS011;11303;50.772;19.670;2022-11-14T08:22:36;91.40;;;26.27;;
22268;SDS011;11303;50.772;19.670;2022-11-14T08:24:38;80.65;;;25.30;;
22268;SDS011;11303;50.772;19.670;2022-11-14T08:26:39;146.10;;;60.85;;
22268;SDS011;11303;50.772;19.670;2022-11-14T08:28:41;105.15;;;39.70;;
22268;SDS011;11303;50.772;19.670;2022-11-14T08:30:42;110.05;;;39.85;;
22268;SDS011;11303;50.772;19.670;2022-11-14T08:32:44;93.63;;;29.65;;
22268;SDS011;11303;50.772;19.670;2022-11-14T08:34:46;188.30;;;58.95;;
22268;SDS011;11303;50.772;19.670;2022-11-14T08:36:47;97.53;;;34.35;;
22268;SDS011;11303;50.772;19.670;2022-11-14T08:38:49;207.30;;;95.43;;
22268;SDS011;11303;50.772;19.670;2022-11-14T08:40:52;86.60;;;34.17;;
22268;SDS011;11303;50.772;19.670;2022-11-14T08:43:00;112.10;;;46.10;;
22268;SDS011;11303;50.772;19.670;2022-11-14T08:45:02;84.57;;;31.77;;
22268;SDS011;11303;50.772;19.670;2022-11-14T08:47:04;56.75;;;21.98;;
22268;SDS011;11303;50.772;19.670;2022-11-14T08:49:06;217.75;;;96.22;;
22268;SDS011;11303;50.772;19.670;2022-11-14T08:51:07;54.38;;;22.40;;
22268;SDS011;11303;50.772;19.670;2022-11-14T08:53:09;147.95;;;65.90;;
22268;SDS011;11303;50.772;19.670;2022-11-14T08:55:10;136.05;;;66.10;;
22268;SDS011;11303;50.772;19.670;2022-11-14T08:57:12;44.70;;;17.95;;
22268;SDS011;11303;50.772;19.670;2022-11-14T08:59:15;85.60;;;28.35;;
22268;SDS011;11303;50.772;19.670;2022-11-14T09:01:17;84.50;;;33.03;;
22268;SDS011;11303;50.772;19.670;2022-11-14T09:03:18;79.60;;;41.72;;
22268;SDS011;11303;50.772;19.670;2022-11-14T09:05:20;65.47;;;29.35;;
22268;SDS011;11303;50.772;19.670;2022-11-14T09:07:22;75.70;;;29.65;;
22268;SDS011;11303;50.772;19.670;2022-11-14T09:09:23;75.10;;;28.75;;
22268;SDS011;11303;50.772;19.670;2022-11-14T09:11:25;64.55;;;26.10;;
22268;SDS011;11303;50.772;19.670;2022-11-14T09:13:27;60.60;;;24.30;;
22268;SDS011;11303;50.772;19.670;2022-11-14T09:15:29;53.95;;;20.15;;
22268;SDS011;11303;50.772;19.670;2022-11-14T09:17:31;42.70;;;17.25;;
22268;SDS011;11303;50.772;19.670;2022-11-14T09:19:32;49.45;;;17.85;;
22268;SDS011;11303;50.772;19.670;2022-11-14T09:21:34;44.63;;;17.83;;
22268;SDS011;11303;50.772;19.670;2022-11-14T09:23:35;42.95;;;19.52;;
22268;SDS011;11303;50.772;19.670;2022-11-14T09:25:37;49.22;;;20.80;;
22268;SDS011;11303;50.772;19.670;2022-11-14T09:27:38;45.35;;;19.05;;
22268;SDS011;11303;50.772;19.670;2022-11-14T09:29:40;93.50;;;45.35;;
22268;SDS011;11303;50.772;19.670;2022-11-14T09:31:41;81.18;;;40.30;;
22268;SDS011;11303;50.772;19.670;2022-11-14T09:33:43;34.28;;;16.45;;
22268;SDS011;11303;50.772;19.670;2022-11-14T09:35:44;48.85;;;20.50;;
22268;SDS011;11303;50.772;19.670;2022-11-14T09:37:46;47.13;;;20.80;;
22268;SDS011;11303;50.772;19.670;2022-11-14T09:39:47;43.58;;;19.13;;
22268;SDS011;11303;50.772;19.670;2022-11-14T09:41:58;46.63;;;19.30;;
22268;SDS011;11303;50.772;19.670;2022-11-14T09:48:45;46.10;;;20.52;;
22268;SDS011;11303;50.772;19.670;2022-11-14T09:50:47;75.68;;;43.22;;
22268;SDS011;11303;50.772;19.670;2022-11-14T09:53:02;163.65;;;91.20;;
22268;SDS011;11303;50.772;19.670;2022-11-14T09:55:10;50.30;;;20.42;;
22268;SDS011;11303;50.772;19.670;2022-11-14T09:57:15;45.45;;;21.25;;
22268;SDS011;11303;50.772;19.670;2022-11-14T09:59:18;52.95;;;21.73;;
22268;SDS011;11303;50.772;19.670;2022-11-14T10:10:48;49.05;;;19.33;;
22268;SDS011;11303;50.772;19.670;2022-11-14T10:19:43;50.97;;;21.58;;
22268;SDS011;11303;50.772;19.670;2022-11-14T10:24:35;54.22;;;22.25;;
22268;SDS011;11303;50.772;19.670;2022-11-14T10:27:03;86.13;;;29.10;;
22268;SDS011;11303;50.772;19.670;2022-11-14T10:29:28;89.47;;;31.10;;
22268;SDS011;11303;50.772;19.670;2022-11-14T10:31:36;49.38;;;20.40;;
22268;SDS011;11303;50.772;19.670;2022-11-14T10:36:02;83.32;;;55.92;;
22268;SDS011;11303;50.772;19.670;2022-11-14T10:38:10;132.85;;;46.95;;
22268;SDS011;11303;50.772;19.670;2022-11-14T10:40:23;55.67;;;20.65;;
22268;SDS011;11303;50.772;19.670;2022-11-14T10:44:38;72.07;;;25.38;;
22268;SDS011;11303;50.772;19.670;2022-11-14T10:46:49;58.95;;;26.05;;
22268;SDS011;11303;50.772;19.670;2022-11-14T10:48:54;67.00;;;26.17;;
22268;SDS011;11303;50.772;19.670;2022-11-14T10:53:36;55.65;;;22.60;;
22268;SDS011;11303;50.772;19.670;2022-11-14T10:55:44;54.20;;;20.30;;
22268;SDS011;11303;50.772;19.670;2022-11-14T10:58:08;65.88;;;25.88;;
22268;SDS011;11303;50.772;19.670;2022-11-14T11:00:12;70.10;;;24.35;;
22268;SDS011;11303;50.772;19.670;2022-11-14T11:02:18;74.15;;;27.40;;
22268;SDS011;11303;50.772;19.670;2022-11-14T11:04:27;68.00;;;24.60;;
22268;SDS011;11303;50.772;19.670;2022-11-14T11:06:32;64.55;;;23.70;;
22268;SDS011;11303;50.772;19.670;2022-11-14T11:08:39;61.13;;;21.52;;
22268;SDS011;11303;50.772;19.670;2022-11-14T11:11:01;77.82;;;35.80;;
22268;SDS011;11303;50.772;19.670;2022-11-14T11:13:29;74.63;;;32.72;;
22268;SDS011;11303;50.772;19.670;2022-11-14T11:15:39;74.63;;;29.50;;
22268;SDS011;11303;50.772;19.670;2022-11-14T11:17:58;65.95;;;33.53;;
22268;SDS011;11303;50.772;19.670;2022-11-14T11:22:41;73.55;;;27.02;;
22268;SDS011;11303;50.772;19.670;2022-11-14T11:24:43;51.42;;;21.48;;
22268;SDS011;11303;50.772;19.670;2022-11-14T11:26:45;58.97;;;25.20;;
22268;SDS011;11303;50.772;19.670;2022-11-14T11:31:04;76.43;;;28.33;;
22268;SDS011;11303;50.772;19.670;2022-11-14T11:35:21;64.20;;;23.80;;
22268;SDS011;11303;50.772;19.670;2022-11-14T11:37:34;73.22;;;29.67;;
22268;SDS011;11303;50.772;19.670;2022-11-14T11:39:42;89.53;;;42.63;;
22268;SDS011;11303;50.772;19.670;2022-11-14T11:41:49;103.53;;;56.60;;
22268;SDS011;11303;50.772;19.670;2022-11-14T11:44:11;68.35;;;28.70;;
22268;SDS011;11303;50.772;19.670;2022-11-14T11:47:04;79.05;;;29.88;;
22268;SDS011;11303;50.772;19.670;2022-11-14T11:49:01;64.43;;;25.83;;
22268;SDS011;11303;50.772;19.670;2022-11-14T11:51:12;68.97;;;28.08;;
22268;SDS011;11303;50.772;19.670;2022-11-14T11:55:25;49.78;;;20.55;;
22268;SDS011;11303;50.772;19.670;2022-11-14T11:57:31;82.35;;;30.98;;
22268;SDS011;11303;50.772;19.670;2022-11-14T11:59:43;73.43;;;29.75;;
22268;SDS011;11303;50.772;19.670;2022-11-14T12:01:47;68.65;;;28.95;;
22268;SDS011;11303;50.772;19.670;2022-11-14T12:03:51;62.78;;;29.67;;
22268;SDS011;11303;50.772;19.670;2022-11-14T12:06:01;60.60;;;22.00;;
22268;SDS011;11303;50.772;19.670;2022-11-14T12:08:05;63.33;;;25.67;;
22268;SDS011;11303;50.772;19.670;2022-11-14T12:10:21;68.50;;;27.20;;
22268;SDS011;11303;50.772;19.670;2022-11-14T12:12:53;84.80;;;29.65;;
22268;SDS011;11303;50.772;19.670;2022-11-14T12:15:05;88.60;;;32.97;;
22268;SDS011;11303;50.772;19.670;2022-11-14T12:31:30;159.48;;;65.63;;
22268;SDS011;11303;50.772;19.670;2022-11-14T12:35:38;90.43;;;28.45;;
22268;SDS011;11303;50.772;19.670;2022-11-14T12:38:12;80.20;;;27.05;;
22268;SDS011;11303;50.772;19.670;2022-11-14T12:40:29;53.05;;;22.00;;
22268;SDS011;11303;50.772;19.670;2022-11-14T12:42:33;68.10;;;26.38;;
22268;SDS011;11303;50.772;19.670;2022-11-14T12:44:36;97.32;;;34.08;;
22268;SDS011;11303;50.772;19.670;2022-11-14T12:47:10;97.40;;;46.17;;